createdAt,value
2019-06-26T00:03:37.182Z,46.13
2019-06-26T00:06:18.735Z,47.17
2019-06-26T00:09:00.298Z,47.77
2019-06-26T00:11:41.737Z,46.67
2019-06-26T00:14:11.141Z,42.13
2019-06-26T00:16:59.848Z,46.17
2019-06-26T00:19:48.349Z,44.57
2019-06-26T00:22:29.373Z,45.47
2019-06-26T00:25:11.794Z,44.87
2019-06-26T00:27:51.830Z,43.53
2019-06-26T00:30:34.004Z,43.37
2019-06-26T00:33:03.435Z,46.27
2019-06-26T00:35:51.891Z,46.80
2019-06-26T00:38:32.888Z,47.10
2019-06-26T00:41:14.368Z,48.77
2019-06-26T00:43:55.114Z,46.57
2019-06-26T00:46:36.730Z,48.07
2019-06-26T00:49:17.912Z,47.47
2019-06-26T00:51:59.259Z,49.80
2019-06-26T00:54:41.636Z,50.83
2019-06-26T00:57:25.045Z,49.47
2019-06-26T01:00:09.220Z,48.10
2019-06-26T01:02:50.560Z,49.27
2019-06-26T01:05:31.443Z,51.57
2019-06-26T01:08:12.964Z,49.83
2019-06-26T01:10:54.639Z,53.63
2019-06-26T01:13:36.981Z,52.00
2019-06-26T01:16:18.163Z,50.93
2019-06-26T01:19:01.287Z,56.23
2019-06-26T01:21:44.559Z,55.27
2019-06-26T01:24:25.505Z,53.43
2019-06-26T01:27:07.128Z,53.57
2019-06-26T01:29:51.187Z,45.87
2019-06-26T01:32:33.073Z,38.73
2019-06-26T01:35:14.214Z,37.83
2019-06-26T01:37:55.281Z,37.00
2019-06-26T01:40:36.864Z,39.03
2019-06-26T01:46:20.807Z,39.30
2019-06-26T01:51:40.853Z,37.80
2019-06-26T01:54:22.368Z,38.27
2019-06-26T01:57:03.223Z,39.97
2019-06-26T01:59:44.732Z,40.77
2019-06-26T02:02:26.529Z,40.23
2019-06-26T02:05:07.692Z,40.83
2019-06-26T02:07:51.137Z,38.20
2019-06-26T02:10:34.135Z,38.07
2019-06-26T02:13:15.099Z,36.07
2019-06-26T02:15:56.741Z,37.30
2019-06-26T02:21:31.602Z,35.53
2019-06-26T02:24:13.134Z,37.27
2019-06-26T02:26:56.162Z,37.80
2019-06-26T02:29:37.272Z,37.93
2019-06-26T02:32:17.948Z,38.57
2019-06-26T02:34:58.645Z,40.87
2019-06-26T02:37:39.280Z,40.23
2019-06-26T02:40:20.714Z,40.80
2019-06-26T02:43:06.526Z,41.17
2019-06-26T02:45:44.453Z,41.90
2019-06-26T02:48:25.598Z,38.33
2019-06-26T02:53:45.251Z,35.97
2019-06-26T02:56:26.756Z,35.23
2019-06-26T02:59:07.319Z,35.67
2019-06-26T03:01:48.877Z,33.30
2019-06-26T03:04:30.361Z,34.70
2019-06-26T03:07:11.926Z,35.90
2019-06-26T03:09:53.497Z,35.50
2019-06-26T03:12:33.175Z,34.97
2019-06-26T03:15:14.493Z,35.13
2019-06-26T03:17:56.428Z,34.30
2019-06-26T03:20:37.915Z,35.67
2019-06-26T03:23:19.456Z,35.67
2019-06-26T03:26:01.286Z,35.67
2019-06-26T03:28:42.729Z,35.47
2019-06-26T03:31:12.184Z,35.93
2019-06-26T03:34:00.654Z,36.50
2019-06-26T03:36:49.515Z,35.43
2019-06-26T03:39:31.381Z,36.13
2019-06-26T03:42:13.894Z,37.23
2019-06-26T03:44:55.524Z,35.87
2019-06-26T03:47:37.059Z,33.77
2019-06-26T03:50:19.340Z,33.37
2019-06-26T03:53:00.366Z,34.67
2019-06-26T03:55:42.505Z,35.67
2019-06-26T03:58:22.322Z,34.83
2019-06-26T04:01:04.335Z,36.10
2019-06-26T04:03:46.246Z,36.17
2019-06-26T04:06:30.683Z,36.03
2019-06-26T04:09:13.421Z,38.70
2019-06-26T04:11:56.608Z,37.60
2019-06-26T04:17:21.959Z,40.07
2019-06-26T04:20:03.630Z,43.13
2019-06-26T04:22:48.025Z,40.53
2019-06-26T04:25:29.734Z,43.73
2019-06-26T04:28:11.650Z,43.90
2019-06-26T04:30:53.743Z,44.87
2019-06-26T04:33:23.239Z,42.87
2019-06-26T04:36:11.938Z,42.07
2019-06-26T04:39:02.538Z,41.90
2019-06-26T04:41:46.525Z,43.60
2019-06-26T04:44:27.457Z,42.03
2019-06-26T04:47:09.238Z,43.47
2019-06-26T04:49:50.863Z,43.53
2019-06-26T04:52:32.189Z,39.33
2019-06-26T04:55:13.634Z,40.47
2019-06-26T04:57:54.271Z,38.70
2019-06-26T05:00:36.036Z,37.37
2019-06-26T05:03:17.607Z,34.93
2019-06-26T05:05:59.061Z,35.27
2019-06-26T05:08:40.520Z,30.93
2019-06-26T05:11:23.528Z,29.40
2019-06-26T05:14:05.032Z,30.53
2019-06-26T05:16:49.372Z,28.37
2019-06-26T05:22:42.914Z,29.27
2019-06-26T05:25:24.803Z,29.47
2019-06-26T05:28:08.446Z,29.80
2019-06-26T05:33:28.901Z,29.67
2019-06-26T05:36:10.405Z,27.60
2019-06-26T05:38:51.849Z,23.90
2019-06-26T05:41:35.345Z,24.77
2019-06-26T05:44:17.246Z,24.80
2019-06-26T05:46:58.952Z,24.13
2019-06-26T05:49:40.624Z,25.17
2019-06-26T05:52:22.067Z,24.87
2019-06-26T05:55:04.009Z,26.73
2019-06-26T05:57:48.399Z,25.83
2019-06-26T06:00:28.842Z,27.27
2019-06-26T06:03:09.566Z,27.60
2019-06-26T06:05:51.176Z,25.97
2019-06-26T06:08:32.758Z,25.70
2019-06-26T06:13:52.999Z,27.23
2019-06-26T06:16:22.358Z,28.70
2019-06-26T06:19:11.168Z,27.73
2019-06-26T06:21:59.854Z,28.03
2019-06-26T06:24:40.497Z,26.30
2019-06-26T06:27:21.620Z,25.03
2019-06-26T06:32:47.515Z,25.90
2019-06-26T06:35:29.104Z,27.37
2019-06-26T06:38:10.270Z,28.10
2019-06-26T06:40:51.933Z,30.97
2019-06-26T06:43:31.920Z,30.27
2019-06-26T06:46:12.855Z,30.93
2019-06-26T06:48:44.288Z,29.90
2019-06-26T06:51:32.677Z,30.40
2019-06-26T06:54:34.909Z,29.10
2019-06-26T06:57:04.439Z,29.07
2019-06-26T06:59:45.646Z,31.07
2019-06-26T07:02:26.676Z,28.20
2019-06-26T07:05:08.129Z,28.27
2019-06-26T07:07:49.967Z,26.27
2019-06-26T07:13:18.835Z,24.70
2019-06-26T07:16:01.865Z,24.70
2019-06-26T07:21:51.843Z,23.90
2019-06-26T07:27:37.554Z,21.53
2019-06-26T07:30:44.575Z,22.03
2019-06-26T07:33:13.426Z,23.20
2019-06-26T07:35:54.835Z,21.90
2019-06-26T07:38:36.680Z,21.83
2019-06-26T07:41:17.991Z,22.13
2019-06-26T07:43:47.426Z,22.70
2019-06-26T07:46:36.141Z,22.97
2019-06-26T07:49:17.721Z,22.67
2019-06-26T07:51:59.531Z,20.60
2019-06-26T07:54:41.858Z,20.50
2019-06-26T07:57:34.673Z,21.33
2019-06-26T08:03:04.626Z,20.27
2019-06-26T08:05:47.000Z,21.63
2019-06-26T08:11:27.437Z,21.17
2019-06-26T08:16:58.933Z,18.43
2019-06-26T08:19:40.442Z,19.10
2019-06-26T08:22:21.731Z,17.80
2019-06-26T08:30:48.633Z,18.53
2019-06-26T08:33:30.191Z,17.47
2019-06-26T08:36:10.881Z,16.37
2019-06-26T08:38:52.425Z,18.13
2019-06-26T08:41:33.332Z,17.97
2019-06-26T08:44:14.933Z,17.80
2019-06-26T08:46:56.440Z,17.10
2019-06-26T08:49:38.400Z,16.40
2019-06-26T08:57:42.415Z,18.70
2019-06-26T09:00:30.879Z,17.80
2019-06-26T09:05:58.767Z,16.93
2019-06-26T09:08:28.507Z,17.10
2019-06-26T09:11:19.016Z,18.93
2019-06-26T09:14:00.375Z,18.27
2019-06-26T09:19:44.478Z,17.23
2019-06-26T09:22:25.864Z,16.77
2019-06-26T09:25:20.949Z,16.63
2019-06-26T09:27:51.905Z,16.30
2019-06-26T09:30:33.133Z,17.33
2019-06-26T09:33:14.755Z,16.03
2019-06-26T09:35:56.737Z,17.43
2019-06-26T09:38:38.371Z,17.20
2019-06-26T09:41:19.842Z,17.00
2019-06-26T09:44:01.313Z,17.80
2019-06-26T09:46:43.713Z,17.30
2019-06-26T09:49:25.754Z,17.03
2019-06-26T09:52:07.649Z,15.63
2019-06-26T09:54:48.293Z,17.00
2019-06-26T09:57:30.050Z,18.23
2019-06-26T10:00:12.823Z,15.83
2019-06-26T10:02:54.532Z,16.63
2019-06-26T10:05:35.707Z,17.63
2019-06-26T10:08:17.248Z,20.23
2019-06-26T10:10:57.891Z,16.57
2019-06-26T10:13:37.599Z,14.53
2019-06-26T10:16:21.246Z,14.90
2019-06-26T10:19:10.291Z,13.43
2019-06-26T10:21:45.308Z,14.23
2019-06-26T10:24:26.861Z,15.23
2019-06-26T10:27:09.935Z,12.50
2019-06-26T10:29:51.547Z,12.27
2019-06-26T10:32:33.384Z,12.50
2019-06-26T10:35:02.817Z,15.63
2019-06-26T10:40:52.870Z,14.07
2019-06-26T10:43:34.510Z,14.03
2019-06-26T10:46:15.975Z,14.23
2019-06-26T10:48:57.344Z,13.67
2019-06-26T10:57:16.380Z,14.37
2019-06-26T11:00:05.760Z,13.10
2019-06-26T11:02:54.219Z,13.43
2019-06-26T11:05:42.949Z,15.47
2019-06-26T11:08:25.129Z,13.43
2019-06-26T11:11:06.460Z,16.07
2019-06-26T11:13:47.993Z,17.30
2019-06-26T11:16:29.502Z,15.57
2019-06-26T11:19:11.068Z,15.88
2019-06-26T11:21:52.485Z,16.85
2019-06-26T11:24:22.380Z,17.33
2019-06-26T11:27:10.865Z,15.60
2019-06-26T11:29:59.801Z,15.03
2019-06-26T11:32:41.544Z,16.87
2019-06-26T11:35:23.130Z,16.07
2019-06-26T11:38:04.724Z,17.93
2019-06-26T11:40:46.120Z,18.83
2019-06-26T11:43:27.312Z,16.93
2019-06-26T11:46:08.116Z,16.90
2019-06-26T11:48:48.187Z,18.73
2019-06-26T11:51:29.175Z,19.73
2019-06-26T11:54:10.587Z,19.43
2019-06-26T11:59:35.969Z,15.60
2019-06-26T12:02:17.600Z,17.23
2019-06-26T12:04:47.080Z,15.83
2019-06-26T12:10:35.264Z,15.10
2019-06-26T12:13:16.376Z,15.70
2019-06-26T12:15:59.949Z,16.70
2019-06-26T12:18:40.277Z,14.57
2019-06-26T12:21:21.835Z,16.70
2019-06-26T12:26:52.975Z,16.20
2019-06-26T12:29:34.803Z,17.00
2019-06-26T12:32:15.836Z,15.77
2019-06-26T12:34:56.607Z,17.30
2019-06-26T12:37:38.508Z,18.17
2019-06-26T12:40:19.975Z,13.90
2019-06-26T12:43:01.547Z,16.37
2019-06-26T12:45:43.345Z,16.02
2019-06-26T12:48:25.573Z,15.30
2019-06-26T12:51:06.291Z,17.27
2019-06-26T12:56:31.926Z,15.17
2019-06-26T12:59:13.534Z,13.53
2019-06-26T13:01:57.320Z,15.23
2019-06-26T13:04:44.485Z,10.90
2019-06-26T13:07:23.299Z,11.33
2019-06-26T13:10:07.375Z,12.13
2019-06-26T13:12:47.639Z,11.40
2019-06-26T13:15:29.524Z,14.05
2019-06-26T13:18:10.953Z,15.13
2019-06-26T13:20:53.745Z,14.07
2019-06-26T13:23:35.178Z,12.25
2019-06-26T13:26:17.020Z,9.25
2019-06-26T13:31:44.376Z,9.05
2019-06-26T13:34:27.299Z,8.88
2019-06-26T13:37:09.033Z,8.83
2019-06-26T13:39:50.045Z,7.92
2019-06-26T13:42:31.701Z,7.35
2019-06-26T13:45:12.903Z,8.00
2019-06-26T13:47:54.664Z,7.45
2019-06-26T13:50:36.184Z,8.60
2019-06-26T13:53:17.399Z,7.78
2019-06-26T13:55:58.593Z,6.60
2019-06-26T13:58:40.343Z,7.72
2019-06-26T14:01:23.217Z,7.25
2019-06-26T14:04:04.817Z,7.67
2019-06-26T14:06:46.421Z,7.80
2019-06-26T14:09:16.003Z,7.78
2019-06-26T14:15:00.431Z,8.58
2019-06-26T14:17:41.431Z,7.05
2019-06-26T14:20:22.991Z,8.23
2019-06-26T14:23:03.964Z,8.73
2019-06-26T14:25:45.574Z,8.73
2019-06-26T14:28:14.978Z,6.65
2019-06-26T14:31:03.714Z,6.87
2019-06-26T14:33:47.307Z,7.17
2019-06-26T14:36:29.772Z,8.70
2019-06-26T14:39:13.198Z,5.75
2019-06-26T14:41:56.642Z,6.15
2019-06-26T14:44:37.558Z,7.45
2019-06-26T14:47:19.238Z,7.58
2019-06-26T14:50:00.992Z,6.50
2019-06-26T14:52:45.025Z,6.62
2019-06-26T14:55:23.865Z,6.60
2019-06-26T14:58:05.329Z,7.42
2019-06-26T15:00:49.052Z,6.28
2019-06-26T15:03:30.268Z,6.25
2019-06-26T15:06:16.857Z,6.62
2019-06-26T15:08:56.797Z,6.22
2019-06-26T15:11:39.774Z,6.55
2019-06-26T15:17:10.088Z,7.42
2019-06-26T15:19:51.343Z,6.22
2019-06-26T15:22:32.932Z,7.47
2019-06-26T15:25:14.151Z,5.70
2019-06-26T15:27:55.961Z,5.92
2019-06-26T15:30:37.323Z,5.20
2019-06-26T15:38:54.080Z,5.05
2019-06-26T15:44:14.553Z,5.65
2019-06-26T15:46:55.788Z,4.33
2019-06-26T15:49:37.703Z,4.55
2019-06-26T15:52:19.413Z,5.62
2019-06-26T15:55:01.030Z,5.00
2019-06-26T15:57:42.310Z,4.87
2019-06-26T16:00:23.696Z,4.37
2019-06-26T16:03:05.468Z,4.87
2019-06-26T16:05:46.621Z,4.35
2019-06-26T16:08:27.999Z,5.05
2019-06-26T16:10:57.528Z,5.10
2019-06-26T16:13:46.301Z,4.83
2019-06-26T16:16:27.835Z,4.60
2019-06-26T16:22:12.608Z,4.72
2019-06-26T16:24:54.439Z,4.70
2019-06-26T16:27:35.828Z,4.80
2019-06-26T16:33:20.093Z,5.20
2019-06-26T16:36:01.365Z,5.03
2019-06-26T16:38:42.930Z,4.80
2019-06-26T16:44:07.778Z,5.12
2019-06-26T16:46:48.856Z,5.10
2019-06-26T16:49:31.079Z,5.10
2019-06-26T16:52:12.931Z,4.65
2019-06-26T16:54:42.398Z,5.05
2019-06-26T16:57:11.812Z,4.85
2019-06-26T17:00:09.515Z,4.60
2019-06-26T17:02:41.958Z,4.92
2019-06-26T17:05:23.800Z,4.42
2019-06-26T17:08:05.229Z,4.12
2019-06-26T17:10:34.978Z,4.78
2019-06-26T17:13:25.688Z,5.30
2019-06-26T17:16:14.185Z,4.70
2019-06-26T17:18:54.735Z,5.30
2019-06-26T17:21:36.171Z,5.12
2019-06-26T17:24:17.938Z,5.30
2019-06-26T17:26:59.621Z,5.45
2019-06-26T17:29:40.864Z,4.90
2019-06-26T17:32:21.466Z,4.62
2019-06-26T17:35:05.759Z,4.50
2019-06-26T17:40:31.280Z,4.40
2019-06-26T17:43:13.074Z,5.15
2019-06-26T17:45:54.935Z,4.60
2019-06-26T17:48:39.264Z,4.65
2019-06-26T17:51:24.830Z,4.20
2019-06-26T17:54:06.572Z,4.78
2019-06-26T17:56:47.745Z,4.90
2019-06-26T17:59:17.419Z,5.03
2019-06-26T18:04:57.026Z,5.62
2019-06-26T18:07:37.007Z,6.33
2019-06-26T18:10:18.395Z,5.97
2019-06-26T18:15:38.727Z,6.30
2019-06-26T18:18:20.401Z,6.20
2019-06-26T18:21:01.856Z,6.10
2019-06-26T18:26:27.909Z,6.50
2019-06-26T18:28:57.245Z,5.77
2019-06-26T18:31:45.710Z,6.00
2019-06-26T18:34:27.374Z,6.00
2019-06-26T18:37:08.664Z,5.77
2019-06-26T18:39:51.363Z,6.63
2019-06-26T18:42:31.230Z,6.23
2019-06-26T18:45:12.969Z,5.33
2019-06-26T18:47:54.055Z,7.50
2019-06-26T18:50:35.428Z,5.70
2019-06-26T18:53:16.991Z,6.00
2019-06-26T18:55:59.880Z,5.90
2019-06-26T18:58:39.846Z,5.57
2019-06-26T19:01:21.467Z,6.53
2019-06-26T19:04:02.873Z,6.00
2019-06-26T19:06:44.212Z,6.30
2019-06-26T19:09:25.830Z,6.47
2019-06-26T19:12:06.756Z,6.83
2019-06-26T19:14:48.497Z,6.73
2019-06-26T19:17:32.280Z,5.93
2019-06-26T19:20:15.367Z,6.20
2019-06-26T19:22:56.976Z,6.57
2019-06-26T19:25:38.676Z,7.00
2019-06-26T19:28:23.127Z,6.27
2019-06-26T19:31:04.014Z,6.20
2019-06-26T19:33:45.667Z,5.97
2019-06-26T19:36:28.695Z,5.63
2019-06-26T19:39:08.930Z,6.27
2019-06-26T19:41:50.688Z,6.87
2019-06-26T19:47:10.829Z,6.87
2019-06-26T19:52:32.158Z,6.30
2019-06-26T19:55:13.662Z,5.40
2019-06-26T19:57:55.160Z,6.27
2019-06-26T20:00:36.401Z,6.00
2019-06-26T20:03:20.164Z,6.23
2019-06-26T20:06:02.072Z,7.10
2019-06-26T20:11:51.130Z,6.80
2019-06-26T20:14:32.890Z,6.17
2019-06-26T20:17:14.313Z,6.40
2019-06-26T20:19:56.002Z,7.47
2019-06-26T20:22:37.578Z,6.47
2019-06-26T20:25:19.105Z,6.70
2019-06-26T20:28:00.682Z,7.57
2019-06-26T20:30:42.551Z,6.57
2019-06-26T20:33:24.124Z,7.37
2019-06-26T20:36:05.451Z,7.60
2019-06-26T20:38:47.835Z,7.77
2019-06-26T20:41:29.209Z,7.30
2019-06-26T20:44:10.270Z,8.43
2019-06-26T20:46:51.174Z,7.90
2019-06-26T20:49:33.067Z,7.60
2019-06-26T20:52:15.525Z,7.63
2019-06-26T20:55:01.991Z,7.33
2019-06-26T20:57:39.645Z,7.70
2019-06-26T21:00:22.617Z,7.53
2019-06-26T21:03:03.076Z,7.53
2019-06-26T21:05:46.120Z,6.60
2019-06-26T21:08:29.407Z,7.80
2019-06-26T21:11:08.881Z,7.60
2019-06-26T21:13:50.406Z,7.73
2019-06-26T21:16:19.678Z,7.97
2019-06-26T21:19:08.243Z,7.03
2019-06-26T21:21:49.662Z,8.10
2019-06-26T21:24:32.966Z,6.70
2019-06-26T21:27:14.713Z,7.50
2019-06-26T21:29:56.073Z,6.43
2019-06-26T21:32:37.308Z,6.33
2019-06-26T21:35:18.395Z,6.20
2019-06-26T21:37:59.795Z,6.70
2019-06-26T21:40:41.146Z,6.13
2019-06-26T21:43:21.751Z,6.00
2019-06-26T21:46:02.529Z,6.40
2019-06-26T21:48:44.740Z,6.17
2019-06-26T21:51:25.167Z,6.63
2019-06-26T21:54:06.261Z,6.83
2019-06-26T21:56:46.966Z,6.33
2019-06-26T21:59:27.903Z,6.10
2019-06-26T22:01:57.118Z,6.90
2019-06-26T22:04:45.409Z,6.87
2019-06-26T22:10:21.224Z,6.57
2019-06-26T22:13:02.659Z,7.00
2019-06-26T22:15:43.377Z,6.93
2019-06-26T22:18:24.055Z,6.47
2019-06-26T22:21:05.401Z,6.73
2019-06-26T22:23:46.459Z,6.50
2019-06-26T22:26:27.723Z,7.57
2019-06-26T22:29:08.852Z,7.90
2019-06-26T22:31:50.241Z,7.30
2019-06-26T22:34:31.019Z,7.60
2019-06-26T22:37:11.705Z,7.23
2019-06-26T22:39:53.258Z,6.83
2019-06-26T22:42:33.967Z,8.37
2019-06-26T22:45:15.181Z,7.67
2019-06-26T22:47:57.334Z,8.03
2019-06-26T22:50:38.403Z,7.63
2019-06-26T22:53:19.330Z,7.00
2019-06-26T22:56:07.622Z,8.00
2019-06-26T22:58:42.700Z,7.57
2019-06-26T23:01:23.804Z,8.93
2019-06-26T23:04:04.725Z,7.97
2019-06-26T23:06:45.705Z,7.80
2019-06-26T23:09:27.096Z,7.60
2019-06-26T23:12:07.758Z,8.17
2019-06-26T23:14:47.511Z,8.27
2019-06-26T23:17:29.127Z,7.50
2019-06-26T23:20:10.092Z,7.80
2019-06-26T23:22:51.544Z,8.57
2019-06-26T23:25:33.007Z,7.77
2019-06-26T23:28:12.920Z,8.27
2019-06-26T23:30:53.918Z,8.00
2019-06-26T23:33:34.639Z,7.73
2019-06-26T23:36:15.300Z,8.47
2019-06-26T23:38:55.986Z,8.20
2019-06-26T23:41:36.827Z,9.13
2019-06-26T23:44:17.848Z,8.67
2019-06-26T23:46:58.957Z,9.63
2019-06-26T23:49:39.753Z,9.07
2019-06-26T23:52:21.309Z,9.20
2019-06-26T23:55:02.618Z,9.47
2019-06-26T23:57:58.068Z,9.53
